sensor_id;sensor_type;location;lat;lon;timestamp;P1;durP1;ratioP1;P2;durP2;ratioP2
51459;SDS011;37534;39.772;2.718;2024-03-23T00:54:41;21.52;;;12.30;;
51459;SDS011;37534;39.772;2.718;2024-03-23T00:57:07;20.95;;;13.25;;
51459;SDS011;37534;39.772;2.718;2024-03-23T00:59:33;16.08;;;11.73;;
51459;SDS011;37534;39.772;2.718;2024-03-23T01:01:58;16.88;;;9.60;;
51459;SDS011;37534;39.772;2.718;2024-03-23T01:04:24;18.23;;;10.45;;
51459;SDS011;37534;39.772;2.718;2024-03-23T01:06:49;15.98;;;9.65;;
51459;SDS011;37534;39.772;2.718;2024-03-23T01:09:15;10.95;;;9.18;;
51459;SDS011;37534;39.772;2.718;2024-03-23T01:11:40;13.32;;;9.02;;
51459;SDS011;37534;39.772;2.718;2024-03-23T01:14:06;16.63;;;9.77;;
51459;SDS011;37534;39.772;2.718;2024-03-23T01:16:32;15.65;;;9.10;;
51459;SDS011;37534;39.772;2.718;2024-03-23T01:18:58;12.18;;;8.65;;
51459;SDS011;37534;39.772;2.718;2024-03-23T01:21:23;11.20;;;9.13;;
51459;SDS011;37534;39.772;2.718;2024-03-23T01:23:49;12.32;;;9.32;;
51459;SDS011;37534;39.772;2.718;2024-03-23T01:26:15;14.50;;;9.00;;
51459;SDS011;37534;39.772;2.718;2024-03-23T01:28:41;19.30;;;9.10;;
51459;SDS011;37534;39.772;2.718;2024-03-23T01:31:06;11.38;;;8.20;;
51459;SDS011;37534;39.772;2.718;2024-03-23T01:33:32;10.52;;;7.95;;
51459;SDS011;37534;39.772;2.718;2024-03-23T01:35:57;8.45;;;7.07;;
51459;SDS011;37534;39.772;2.718;2024-03-23T01:38:23;12.63;;;8.45;;
51459;SDS011;37534;39.772;2.718;2024-03-23T01:40:56;13.88;;;9.20;;
51459;SDS011;37534;39.772;2.718;2024-03-23T01:43:22;10.98;;;9.25;;
51459;SDS011;37534;39.772;2.718;2024-03-23T01:45:48;13.52;;;7.43;;
51459;SDS011;37534;39.772;2.718;2024-03-23T01:48:14;12.07;;;8.85;;
51459;SDS011;37534;39.772;2.718;2024-03-23T01:50:39;10.65;;;7.95;;
51459;SDS011;37534;39.772;2.718;2024-03-23T01:53:05;13.27;;;8.20;;
51459;SDS011;37534;39.772;2.718;2024-03-23T01:55:34;9.63;;;7.78;;
51459;SDS011;37534;39.772;2.718;2024-03-23T01:57:59;15.38;;;7.93;;
51459;SDS011;37534;39.772;2.718;2024-03-23T02:00:25;8.60;;;7.40;;
51459;SDS011;37534;39.772;2.718;2024-03-23T02:02:53;9.23;;;6.53;;
51459;SDS011;37534;39.772;2.718;2024-03-23T02:05:18;10.98;;;8.15;;
51459;SDS011;37534;39.772;2.718;2024-03-23T02:07:44;16.33;;;7.68;;
51459;SDS011;37534;39.772;2.718;2024-03-23T02:10:09;10.00;;;7.50;;
51459;SDS011;37534;39.772;2.718;2024-03-23T02:12:38;13.73;;;8.52;;
51459;SDS011;37534;39.772;2.718;2024-03-23T02:15:04;13.85;;;8.32;;
51459;SDS011;37534;39.772;2.718;2024-03-23T02:17:31;12.52;;;9.18;;
51459;SDS011;37534;39.772;2.718;2024-03-23T02:19:58;17.35;;;9.27;;
51459;SDS011;37534;39.772;2.718;2024-03-23T02:22:23;11.80;;;8.07;;
51459;SDS011;37534;39.772;2.718;2024-03-23T02:24:49;17.60;;;8.15;;
51459;SDS011;37534;39.772;2.718;2024-03-23T02:27:15;11.95;;;8.02;;
51459;SDS011;37534;39.772;2.718;2024-03-23T02:29:40;9.35;;;7.55;;
51459;SDS011;37534;39.772;2.718;2024-03-23T02:32:06;14.43;;;9.10;;
51459;SDS011;37534;39.772;2.718;2024-03-23T02:34:34;14.75;;;7.65;;
51459;SDS011;37534;39.772;2.718;2024-03-23T02:36:59;19.95;;;10.55;;
51459;SDS011;37534;39.772;2.718;2024-03-23T02:39:25;11.23;;;9.13;;
51459;SDS011;37534;39.772;2.718;2024-03-23T02:41:50;13.68;;;9.45;;
51459;SDS011;37534;39.772;2.718;2024-03-23T02:44:16;14.57;;;8.70;;
51459;SDS011;37534;39.772;2.718;2024-03-23T02:46:41;14.05;;;8.82;;
51459;SDS011;37534;39.772;2.718;2024-03-23T02:49:07;15.38;;;9.70;;
51459;SDS011;37534;39.772;2.718;2024-03-23T02:51:33;13.82;;;8.95;;
51459;SDS011;37534;39.772;2.718;2024-03-23T02:54:01;15.70;;;9.48;;
51459;SDS011;37534;39.772;2.718;2024-03-23T02:56:27;9.18;;;6.78;;
51459;SDS011;37534;39.772;2.718;2024-03-23T02:58:52;10.95;;;7.30;;
51459;SDS011;37534;39.772;2.718;2024-03-23T03:01:18;11.27;;;6.68;;
51459;SDS011;37534;39.772;2.718;2024-03-23T03:03:43;9.88;;;6.50;;
51459;SDS011;37534;39.772;2.718;2024-03-23T03:06:09;13.52;;;7.30;;
51459;SDS011;37534;39.772;2.718;2024-03-23T03:08:35;9.82;;;7.03;;
51459;SDS011;37534;39.772;2.718;2024-03-23T03:11:00;10.55;;;5.88;;
51459;SDS011;37534;39.772;2.718;2024-03-23T03:13:27;17.98;;;6.80;;
51459;SDS011;37534;39.772;2.718;2024-03-23T03:15:52;11.52;;;8.57;;
51459;SDS011;37534;39.772;2.718;2024-03-23T03:18:18;11.50;;;8.25;;
51459;SDS011;37534;39.772;2.718;2024-03-23T03:20:43;9.93;;;8.57;;
51459;SDS011;37534;39.772;2.718;2024-03-23T03:23:09;13.27;;;7.95;;
51459;SDS011;37534;39.772;2.718;2024-03-23T03:25:35;15.07;;;8.82;;
51459;SDS011;37534;39.772;2.718;2024-03-23T03:28:00;15.40;;;9.07;;
51459;SDS011;37534;39.772;2.718;2024-03-23T03:30:26;10.90;;;7.35;;
51459;SDS011;37534;39.772;2.718;2024-03-23T03:32:53;17.15;;;8.07;;
51459;SDS011;37534;39.772;2.718;2024-03-23T03:35:19;15.00;;;6.68;;
51459;SDS011;37534;39.772;2.718;2024-03-23T03:37:44;10.20;;;6.32;;
51459;SDS011;37534;39.772;2.718;2024-03-23T03:40:10;12.88;;;5.72;;
51459;SDS011;37534;39.772;2.718;2024-03-23T03:42:37;9.45;;;5.43;;
51459;SDS011;37534;39.772;2.718;2024-03-23T03:45:02;9.07;;;6.68;;
51459;SDS011;37534;39.772;2.718;2024-03-23T03:47:29;12.05;;;6.45;;
51459;SDS011;37534;39.772;2.718;2024-03-23T03:49:55;10.27;;;5.82;;
51459;SDS011;37534;39.772;2.718;2024-03-23T03:52:20;11.18;;;5.95;;
51459;SDS011;37534;39.772;2.718;2024-03-23T03:54:46;15.30;;;6.95;;
51459;SDS011;37534;39.772;2.718;2024-03-23T03:57:12;10.15;;;6.10;;
51459;SDS011;37534;39.772;2.718;2024-03-23T03:59:37;14.30;;;6.28;;
51459;SDS011;37534;39.772;2.718;2024-03-23T04:02:03;12.98;;;7.03;;
51459;SDS011;37534;39.772;2.718;2024-03-23T04:04:28;8.32;;;6.63;;
51459;SDS011;37534;39.772;2.718;2024-03-23T04:07:00;10.60;;;7.22;;
51459;SDS011;37534;39.772;2.718;2024-03-23T04:09:27;19.20;;;8.85;;
51459;SDS011;37534;39.772;2.718;2024-03-23T04:11:53;12.15;;;6.53;;
51459;SDS011;37534;39.772;2.718;2024-03-23T04:14:19;10.95;;;5.78;;
51459;SDS011;37534;39.772;2.718;2024-03-23T04:16:44;16.80;;;6.75;;
51459;SDS011;37534;39.772;2.718;2024-03-23T04:19:11;9.30;;;6.13;;
51459;SDS011;37534;39.772;2.718;2024-03-23T04:21:40;11.00;;;6.95;;
51459;SDS011;37534;39.772;2.718;2024-03-23T04:24:06;21.25;;;8.10;;
51459;SDS011;37534;39.772;2.718;2024-03-23T04:26:52;14.45;;;8.23;;
51459;SDS011;37534;39.772;2.718;2024-03-23T04:29:17;10.15;;;6.93;;
51459;SDS011;37534;39.772;2.718;2024-03-23T04:31:43;11.75;;;7.07;;
51459;SDS011;37534;39.772;2.718;2024-03-23T04:34:08;8.45;;;6.38;;
51459;SDS011;37534;39.772;2.718;2024-03-23T04:36:34;10.85;;;7.50;;
51459;SDS011;37534;39.772;2.718;2024-03-23T04:38:59;13.30;;;7.28;;
51459;SDS011;37534;39.772;2.718;2024-03-23T04:41:26;7.68;;;5.90;;
51459;SDS011;37534;39.772;2.718;2024-03-23T04:43:52;7.18;;;5.90;;
51459;SDS011;37534;39.772;2.718;2024-03-23T04:46:17;9.38;;;5.93;;
51459;SDS011;37534;39.772;2.718;2024-03-23T04:48:43;6.47;;;5.00;;
51459;SDS011;37534;39.772;2.718;2024-03-23T04:51:10;8.60;;;6.05;;
51459;SDS011;37534;39.772;2.718;2024-03-23T04:53:37;6.00;;;4.32;;
51459;SDS011;37534;39.772;2.718;2024-03-23T04:56:03;8.70;;;5.90;;
51459;SDS011;37534;39.772;2.718;2024-03-23T04:58:29;14.38;;;7.28;;
51459;SDS011;37534;39.772;2.718;2024-03-23T05:00:57;15.93;;;8.70;;
51459;SDS011;37534;39.772;2.718;2024-03-23T05:03:23;19.13;;;8.68;;
51459;SDS011;37534;39.772;2.718;2024-03-23T05:05:49;15.00;;;7.50;;
51459;SDS011;37534;39.772;2.718;2024-03-23T05:08:15;12.38;;;6.00;;
51459;SDS011;37534;39.772;2.718;2024-03-23T05:10:41;7.07;;;5.53;;
51459;SDS011;37534;39.772;2.718;2024-03-23T05:13:07;9.60;;;7.10;;
51459;SDS011;37534;39.772;2.718;2024-03-23T05:15:33;10.35;;;6.32;;
51459;SDS011;37534;39.772;2.718;2024-03-23T05:17:59;33.97;;;6.22;;
51459;SDS011;37534;39.772;2.718;2024-03-23T05:20:24;8.50;;;4.97;;
51459;SDS011;37534;39.772;2.718;2024-03-23T05:22:50;5.63;;;4.60;;
51459;SDS011;37534;39.772;2.718;2024-03-23T05:25:15;9.07;;;4.60;;
51459;SDS011;37534;39.772;2.718;2024-03-23T05:27:41;11.07;;;6.35;;
51459;SDS011;37534;39.772;2.718;2024-03-23T05:30:07;10.32;;;4.63;;
51459;SDS011;37534;39.772;2.718;2024-03-23T05:32:34;7.15;;;5.57;;
51459;SDS011;37534;39.772;2.718;2024-03-23T05:34:59;8.45;;;5.25;;
51459;SDS011;37534;39.772;2.718;2024-03-23T05:37:25;7.15;;;5.03;;
51459;SDS011;37534;39.772;2.718;2024-03-23T05:39:51;6.70;;;4.97;;
51459;SDS011;37534;39.772;2.718;2024-03-23T05:42:16;13.85;;;4.80;;
51459;SDS011;37534;39.772;2.718;2024-03-23T05:44:45;8.45;;;4.78;;
51459;SDS011;37534;39.772;2.718;2024-03-23T05:47:12;6.90;;;4.60;;
51459;SDS011;37534;39.772;2.718;2024-03-23T05:49:39;8.07;;;5.10;;
51459;SDS011;37534;39.772;2.718;2024-03-23T05:52:06;6.32;;;4.45;;
51459;SDS011;37534;39.772;2.718;2024-03-23T05:54:33;8.35;;;4.72;;
51459;SDS011;37534;39.772;2.718;2024-03-23T05:56:58;7.03;;;5.07;;
51459;SDS011;37534;39.772;2.718;2024-03-23T05:59:24;16.77;;;6.10;;
51459;SDS011;37534;39.772;2.718;2024-03-23T06:01:50;12.75;;;5.72;;
51459;SDS011;37534;39.772;2.718;2024-03-23T06:04:15;11.90;;;6.53;;
51459;SDS011;37534;39.772;2.718;2024-03-23T06:06:41;7.65;;;4.93;;
51459;SDS011;37534;39.772;2.718;2024-03-23T06:09:07;18.98;;;5.10;;
51459;SDS011;37534;39.772;2.718;2024-03-23T06:11:32;7.50;;;4.80;;
51459;SDS011;37534;39.772;2.718;2024-03-23T06:13:58;8.18;;;5.80;;
51459;SDS011;37534;39.772;2.718;2024-03-23T06:16:24;8.60;;;6.15;;
51459;SDS011;37534;39.772;2.718;2024-03-23T06:18:52;11.73;;;6.20;;
51459;SDS011;37534;39.772;2.718;2024-03-23T06:21:19;14.50;;;7.65;;
51459;SDS011;37534;39.772;2.718;2024-03-23T06:23:45;18.77;;;7.07;;
51459;SDS011;37534;39.772;2.718;2024-03-23T06:26:17;6.85;;;6.05;;
51459;SDS011;37534;39.772;2.718;2024-03-23T06:28:46;15.38;;;7.03;;
51459;SDS011;37534;39.772;2.718;2024-03-23T06:31:12;22.38;;;11.00;;
51459;SDS011;37534;39.772;2.718;2024-03-23T06:33:38;19.23;;;9.88;;
51459;SDS011;37534;39.772;2.718;2024-03-23T06:36:04;22.52;;;8.35;;
51459;SDS011;37534;39.772;2.718;2024-03-23T06:38:33;13.45;;;5.45;;
51459;SDS011;37534;39.772;2.718;2024-03-23T06:41:00;8.98;;;5.78;;
51459;SDS011;37534;39.772;2.718;2024-03-23T06:43:28;10.20;;;4.85;;
51459;SDS011;37534;39.772;2.718;2024-03-23T06:45:54;43.95;;;5.28;;
51459;SDS011;37534;39.772;2.718;2024-03-23T06:48:20;7.53;;;5.70;;
51459;SDS011;37534;39.772;2.718;2024-03-23T06:50:46;7.10;;;5.25;;
51459;SDS011;37534;39.772;2.718;2024-03-23T06:53:15;9.30;;;5.85;;
51459;SDS011;37534;39.772;2.718;2024-03-23T06:55:40;19.02;;;6.90;;
51459;SDS011;37534;39.772;2.718;2024-03-23T06:58:07;12.45;;;6.78;;
51459;SDS011;37534;39.772;2.718;2024-03-23T07:00:32;8.98;;;5.28;;
51459;SDS011;37534;39.772;2.718;2024-03-23T07:02:59;20.40;;;7.10;;
51459;SDS011;37534;39.772;2.718;2024-03-23T07:05:24;7.50;;;5.55;;
51459;SDS011;37534;39.772;2.718;2024-03-23T07:07:50;9.10;;;6.00;;
51459;SDS011;37534;39.772;2.718;2024-03-23T07:10:18;15.73;;;6.35;;
51459;SDS011;37534;39.772;2.718;2024-03-23T07:12:44;11.07;;;6.80;;
51459;SDS011;37534;39.772;2.718;2024-03-23T07:15:10;10.98;;;5.80;;
51459;SDS011;37534;39.772;2.718;2024-03-23T07:17:36;8.23;;;5.43;;
51459;SDS011;37534;39.772;2.718;2024-03-23T07:20:02;14.02;;;7.10;;
51459;SDS011;37534;39.772;2.718;2024-03-23T07:22:35;12.88;;;7.82;;
51459;SDS011;37534;39.772;2.718;2024-03-23T07:25:01;11.63;;;7.60;;
51459;SDS011;37534;39.772;2.718;2024-03-23T07:27:28;16.20;;;8.90;;
51459;SDS011;37534;39.772;2.718;2024-03-23T07:29:53;14.20;;;9.15;;
51459;SDS011;37534;39.772;2.718;2024-03-23T07:32:20;12.10;;;7.35;;
51459;SDS011;37534;39.772;2.718;2024-03-23T07:34:45;12.82;;;7.45;;
51459;SDS011;37534;39.772;2.718;2024-03-23T07:37:11;18.35;;;9.93;;
51459;SDS011;37534;39.772;2.718;2024-03-23T07:39:37;35.50;;;22.85;;
51459;SDS011;37534;39.772;2.718;2024-03-23T07:42:04;70.60;;;52.95;;
51459;SDS011;37534;39.772;2.718;2024-03-23T07:44:30;71.60;;;51.72;;
51459;SDS011;37534;39.772;2.718;2024-03-23T07:46:55;58.97;;;44.67;;
51459;SDS011;37534;39.772;2.718;2024-03-23T07:49:21;53.90;;;41.85;;
51459;SDS011;37534;39.772;2.718;2024-03-23T07:51:47;37.90;;;28.63;;
51459;SDS011;37534;39.772;2.718;2024-03-23T07:54:12;24.15;;;16.80;;
51459;SDS011;37534;39.772;2.718;2024-03-23T07:56:38;17.98;;;14.10;;
51459;SDS011;37534;39.772;2.718;2024-03-23T07:59:03;28.35;;;16.45;;
51459;SDS011;37534;39.772;2.718;2024-03-23T08:01:29;25.23;;;20.30;;
51459;SDS011;37534;39.772;2.718;2024-03-23T08:03:55;31.15;;;20.10;;
51459;SDS011;37534;39.772;2.718;2024-03-23T08:06:20;38.03;;;24.60;;
51459;SDS011;37534;39.772;2.718;2024-03-23T08:08:54;33.28;;;22.05;;
51459;SDS011;37534;39.772;2.718;2024-03-23T08:11:27;21.25;;;16.02;;
51459;SDS011;37534;39.772;2.718;2024-03-23T08:13:52;23.73;;;17.83;;
51459;SDS011;37534;39.772;2.718;2024-03-23T08:16:18;26.75;;;18.25;;
51459;SDS011;37534;39.772;2.718;2024-03-23T08:18:43;16.83;;;13.55;;
51459;SDS011;37534;39.772;2.718;2024-03-23T08:21:09;22.15;;;14.95;;
51459;SDS011;37534;39.772;2.718;2024-03-23T08:23:36;23.48;;;13.38;;
51459;SDS011;37534;39.772;2.718;2024-03-23T08:26:07;20.52;;;14.70;;
51459;SDS011;37534;39.772;2.718;2024-03-23T08:28:37;20.08;;;14.10;;
51459;SDS011;37534;39.772;2.718;2024-03-23T08:31:09;15.73;;;12.60;;
51459;SDS011;37534;39.772;2.718;2024-03-23T08:33:36;15.48;;;13.30;;
51459;SDS011;37534;39.772;2.718;2024-03-23T08:36:06;33.45;;;14.32;;
51459;SDS011;37534;39.772;2.718;2024-03-23T08:38:33;19.27;;;15.30;;
51459;SDS011;37534;39.772;2.718;2024-03-23T08:41:03;29.17;;;17.45;;
51459;SDS011;37534;39.772;2.718;2024-03-23T08:43:30;31.48;;;17.33;;
51459;SDS011;37534;39.772;2.718;2024-03-23T08:46:07;17.05;;;14.68;;
51459;SDS011;37534;39.772;2.718;2024-03-23T08:48:34;14.15;;;12.70;;
51459;SDS011;37534;39.772;2.718;2024-03-23T08:51:05;21.27;;;12.25;;
51459;SDS011;37534;39.772;2.718;2024-03-23T08:53:35;13.85;;;11.80;;
51459;SDS011;37534;39.772;2.718;2024-03-23T08:56:01;15.57;;;11.43;;
51459;SDS011;37534;39.772;2.718;2024-03-23T08:58:28;14.25;;;7.18;;
51459;SDS011;37534;39.772;2.718;2024-03-23T09:00:56;17.92;;;8.38;;
51459;SDS011;37534;39.772;2.718;2024-03-23T09:03:28;18.00;;;7.55;;
51459;SDS011;37534;39.772;2.718;2024-03-23T09:05:54;7.55;;;5.35;;
51459;SDS011;37534;39.772;2.718;2024-03-23T09:08:20;9.57;;;5.72;;
51459;SDS011;37534;39.772;2.718;2024-03-23T09:10:47;19.58;;;7.50;;
51459;SDS011;37534;39.772;2.718;2024-03-23T09:13:13;10.07;;;6.50;;
51459;SDS011;37534;39.772;2.718;2024-03-23T09:15:46;8.93;;;6.82;;
51459;SDS011;37534;39.772;2.718;2024-03-23T09:18:16;14.63;;;6.63;;
51459;SDS011;37534;39.772;2.718;2024-03-23T09:20:44;9.88;;;6.47;;
51459;SDS011;37534;39.772;2.718;2024-03-23T09:23:10;15.05;;;8.75;;
51459;SDS011;37534;39.772;2.718;2024-03-23T09:25:36;13.02;;;7.35;;
51459;SDS011;37534;39.772;2.718;2024-03-23T09:28:03;11.68;;;7.65;;
51459;SDS011;37534;39.772;2.718;2024-03-23T09:30:28;9.00;;;7.43;;
51459;SDS011;37534;39.772;2.718;2024-03-23T09:32:54;22.70;;;15.43;;
51459;SDS011;37534;39.772;2.718;2024-03-23T09:35:22;17.83;;;15.63;;
51459;SDS011;37534;39.772;2.718;2024-03-23T09:37:50;60.55;;;37.75;;
51459;SDS011;37534;39.772;2.718;2024-03-23T09:40:15;37.15;;;23.55;;
51459;SDS011;37534;39.772;2.718;2024-03-23T09:42:43;14.82;;;10.35;;
51459;SDS011;37534;39.772;2.718;2024-03-23T09:45:27;15.63;;;7.97;;
51459;SDS011;37534;39.772;2.718;2024-03-23T09:47:57;9.43;;;4.43;;
51459;SDS011;37534;39.772;2.718;2024-03-23T09:50:23;7.90;;;3.83;;
51459;SDS011;37534;39.772;2.718;2024-03-23T09:52:48;16.73;;;6.47;;
51459;SDS011;37534;39.772;2.718;2024-03-23T09:55:14;15.13;;;6.45;;
51459;SDS011;37534;39.772;2.718;2024-03-23T09:57:41;11.88;;;7.90;;
51459;SDS011;37534;39.772;2.718;2024-03-23T10:00:07;30.20;;;16.13;;
51459;SDS011;37534;39.772;2.718;2024-03-23T10:02:33;20.02;;;11.60;;
51459;SDS011;37534;39.772;2.718;2024-03-23T10:05:00;5.97;;;4.90;;
51459;SDS011;37534;39.772;2.718;2024-03-23T10:07:28;4.38;;;3.03;;
51459;SDS011;37534;39.772;2.718;2024-03-23T10:09:54;8.88;;;3.75;;
51459;SDS011;37534;39.772;2.718;2024-03-23T10:12:19;7.40;;;3.75;;
51459;SDS011;37534;39.772;2.718;2024-03-23T10:14:45;7.78;;;3.15;;
51459;SDS011;37534;39.772;2.718;2024-03-23T10:17:18;6.25;;;2.63;;
51459;SDS011;37534;39.772;2.718;2024-03-23T10:19:45;5.05;;;2.72;;
51459;SDS011;37534;39.772;2.718;2024-03-23T10:22:22;9.32;;;4.32;;
51459;SDS011;37534;39.772;2.718;2024-03-23T10:24:49;8.38;;;4.63;;
51459;SDS011;37534;39.772;2.718;2024-03-23T10:27:16;12.60;;;5.03;;
51459;SDS011;37534;39.772;2.718;2024-03-23T10:29:44;7.68;;;4.28;;
51459;SDS011;37534;39.772;2.718;2024-03-23T10:32:13;16.52;;;13.25;;
51459;SDS011;37534;39.772;2.718;2024-03-23T10:34:40;31.48;;;23.77;;
51459;SDS011;37534;39.772;2.718;2024-03-23T10:37:06;56.33;;;38.95;;
51459;SDS011;37534;39.772;2.718;2024-03-23T10:39:36;34.53;;;24.58;;
51459;SDS011;37534;39.772;2.718;2024-03-23T10:42:09;36.45;;;27.80;;
51459;SDS011;37534;39.772;2.718;2024-03-23T10:44:37;84.47;;;52.17;;
51459;SDS011;37534;39.772;2.718;2024-03-23T10:47:03;45.25;;;31.45;;
51459;SDS011;37534;39.772;2.718;2024-03-23T10:49:33;63.03;;;44.63;;
51459;SDS011;37534;39.772;2.718;2024-03-23T10:52:01;51.85;;;37.30;;
51459;SDS011;37534;39.772;2.718;2024-03-23T10:54:30;46.92;;;31.77;;
51459;SDS011;37534;39.772;2.718;2024-03-23T10:56:58;82.22;;;55.35;;
51459;SDS011;37534;39.772;2.718;2024-03-23T10:59:29;51.92;;;34.92;;
51459;SDS011;37534;39.772;2.718;2024-03-23T11:01:56;34.08;;;18.85;;
51459;SDS011;37534;39.772;2.718;2024-03-23T11:04:32;10.25;;;6.30;;
51459;SDS011;37534;39.772;2.718;2024-03-23T11:06:59;14.27;;;6.45;;
51459;SDS011;37534;39.772;2.718;2024-03-23T11:09:46;8.68;;;6.65;;
51459;SDS011;37534;39.772;2.718;2024-03-23T11:14:49;23.45;;;16.73;;
51459;SDS011;37534;39.772;2.718;2024-03-23T11:17:21;13.93;;;11.32;;
51459;SDS011;37534;39.772;2.718;2024-03-23T11:19:57;22.17;;;14.25;;
51459;SDS011;37534;39.772;2.718;2024-03-23T11:25:22;24.70;;;19.08;;
51459;SDS011;37534;39.772;2.718;2024-03-23T11:27:55;9.93;;;5.35;;
51459;SDS011;37534;39.772;2.718;2024-03-23T11:30:35;17.10;;;4.78;;
51459;SDS011;37534;39.772;2.718;2024-03-23T11:33:02;6.03;;;3.80;;
51459;SDS011;37534;39.772;2.718;2024-03-23T11:35:28;11.40;;;4.93;;
51459;SDS011;37534;39.772;2.718;2024-03-23T11:38:13;15.05;;;5.22;;
51459;SDS011;37534;39.772;2.718;2024-03-23T11:40:44;9.77;;;4.90;;
51459;SDS011;37534;39.772;2.718;2024-03-23T11:43:16;10.75;;;5.50;;
51459;SDS011;37534;39.772;2.718;2024-03-23T11:45:46;9.98;;;5.25;;
51459;SDS011;37534;39.772;2.718;2024-03-23T11:48:16;20.45;;;6.03;;
51459;SDS011;37534;39.772;2.718;2024-03-23T11:50:44;12.88;;;6.47;;
51459;SDS011;37534;39.772;2.718;2024-03-23T11:53:18;17.23;;;12.38;;
51459;SDS011;37534;39.772;2.718;2024-03-23T11:58:11;13.88;;;10.02;;
51459;SDS011;37534;39.772;2.718;2024-03-23T12:00:38;8.88;;;6.40;;
51459;SDS011;37534;39.772;2.718;2024-03-23T12:03:04;24.08;;;14.48;;
51459;SDS011;37534;39.772;2.718;2024-03-23T12:05:31;22.98;;;10.30;;
51459;SDS011;37534;39.772;2.718;2024-03-23T12:11:15;19.52;;;7.95;;
51459;SDS011;37534;39.772;2.718;2024-03-23T12:13:47;13.38;;;8.80;;
51459;SDS011;37534;39.772;2.718;2024-03-23T12:16:16;14.90;;;10.82;;
51459;SDS011;37534;39.772;2.718;2024-03-23T12:18:49;14.27;;;8.90;;
51459;SDS011;37534;39.772;2.718;2024-03-23T12:21:16;12.63;;;6.30;;
51459;SDS011;37534;39.772;2.718;2024-03-23T12:23:42;15.82;;;5.53;;
51459;SDS011;37534;39.772;2.718;2024-03-23T12:26:12;7.32;;;4.90;;
51459;SDS011;37534;39.772;2.718;2024-03-23T12:28:38;8.23;;;5.57;;
51459;SDS011;37534;39.772;2.718;2024-03-23T12:31:04;12.45;;;4.43;;
51459;SDS011;37534;39.772;2.718;2024-03-23T12:33:30;6.53;;;3.78;;
51459;SDS011;37534;39.772;2.718;2024-03-23T12:35:56;13.70;;;3.88;;
51459;SDS011;37534;39.772;2.718;2024-03-23T12:38:21;7.28;;;3.72;;
51459;SDS011;37534;39.772;2.718;2024-03-23T12:40:47;10.13;;;2.97;;
51459;SDS011;37534;39.772;2.718;2024-03-23T12:43:16;9.73;;;4.03;;
51459;SDS011;37534;39.772;2.718;2024-03-23T12:45:48;10.48;;;2.85;;
51459;SDS011;37534;39.772;2.718;2024-03-23T12:48:15;8.88;;;3.35;;
51459;SDS011;37534;39.772;2.718;2024-03-23T12:50:41;6.65;;;3.03;;
51459;SDS011;37534;39.772;2.718;2024-03-23T12:53:06;5.60;;;3.88;;
51459;SDS011;37534;39.772;2.718;2024-03-23T12:55:32;12.30;;;3.45;;
51459;SDS011;37534;39.772;2.718;2024-03-23T12:58:00;7.55;;;3.40;;
51459;SDS011;37534;39.772;2.718;2024-03-23T13:00:25;11.20;;;3.40;;
51459;SDS011;37534;39.772;2.718;2024-03-23T13:02:51;5.85;;;2.92;;
51459;SDS011;37534;39.772;2.718;2024-03-23T13:05:17;11.30;;;3.80;;
51459;SDS011;37534;39.772;2.718;2024-03-23T13:07:42;9.27;;;3.30;;
51459;SDS011;37534;39.772;2.718;2024-03-23T13:10:08;4.78;;;3.20;;
51459;SDS011;37534;39.772;2.718;2024-03-23T13:12:34;10.38;;;4.40;;
51459;SDS011;37534;39.772;2.718;2024-03-23T13:15:00;22.55;;;3.80;;
51459;SDS011;37534;39.772;2.718;2024-03-23T13:17:26;8.43;;;3.72;;
51459;SDS011;37534;39.772;2.718;2024-03-23T13:19:52;33.33;;;5.75;;
51459;SDS011;37534;39.772;2.718;2024-03-23T13:22:18;12.52;;;4.63;;
51459;SDS011;37534;39.772;2.718;2024-03-23T13:24:44;21.70;;;3.72;;
51459;SDS011;37534;39.772;2.718;2024-03-23T13:27:10;8.98;;;3.55;;
51459;SDS011;37534;39.772;2.718;2024-03-23T13:29:36;13.02;;;4.25;;
51459;SDS011;37534;39.772;2.718;2024-03-23T13:32:02;5.97;;;3.28;;
51459;SDS011;37534;39.772;2.718;2024-03-23T13:34:28;9.95;;;4.03;;
51459;SDS011;37534;39.772;2.718;2024-03-23T13:36:54;12.23;;;4.18;;
51459;SDS011;37534;39.772;2.718;2024-03-23T13:39:21;9.90;;;3.92;;
51459;SDS011;37534;39.772;2.718;2024-03-23T13:41:46;9.65;;;3.33;;
51459;SDS011;37534;39.772;2.718;2024-03-23T13:44:12;7.93;;;3.42;;
51459;SDS011;37534;39.772;2.718;2024-03-23T13:46:40;7.68;;;3.60;;
51459;SDS011;37534;39.772;2.718;2024-03-23T13:49:18;5.75;;;3.03;;
51459;SDS011;37534;39.772;2.718;2024-03-23T13:51:51;18.75;;;4.15;;
51459;SDS011;37534;39.772;2.718;2024-03-23T13:54:17;5.03;;;3.13;;
51459;SDS011;37534;39.772;2.718;2024-03-23T13:56:43;12.07;;;3.72;;
51459;SDS011;37534;39.772;2.718;2024-03-23T13:59:09;16.30;;;3.75;;
51459;SDS011;37534;39.772;2.718;2024-03-23T14:01:35;9.25;;;3.55;;
51459;SDS011;37534;39.772;2.718;2024-03-23T14:04:01;6.50;;;3.17;;
51459;SDS011;37534;39.772;2.718;2024-03-23T14:06:26;5.38;;;2.75;;
51459;SDS011;37534;39.772;2.718;2024-03-23T14:08:52;11.10;;;3.67;;
51459;SDS011;37534;39.772;2.718;2024-03-23T14:11:18;6.63;;;2.90;;
51459;SDS011;37534;39.772;2.718;2024-03-23T14:13:44;6.07;;;2.67;;
51459;SDS011;37534;39.772;2.718;2024-03-23T14:16:09;6.85;;;2.83;;
51459;SDS011;37534;39.772;2.718;2024-03-23T14:18:35;5.78;;;2.78;;
51459;SDS011;37534;39.772;2.718;2024-03-23T14:21:00;20.10;;;2.92;;
51459;SDS011;37534;39.772;2.718;2024-03-23T14:23:26;10.05;;;2.65;;
51459;SDS011;37534;39.772;2.718;2024-03-23T14:26:02;6.97;;;3.38;;
51459;SDS011;37534;39.772;2.718;2024-03-23T14:28:28;8.43;;;2.83;;
51459;SDS011;37534;39.772;2.718;2024-03-23T14:30:57;8.73;;;3.42;;
51459;SDS011;37534;39.772;2.718;2024-03-23T14:33:22;7.10;;;3.38;;
51459;SDS011;37534;39.772;2.718;2024-03-23T14:35:52;15.73;;;3.55;;
51459;SDS011;37534;39.772;2.718;2024-03-23T14:38:18;7.10;;;3.03;;
51459;SDS011;37534;39.772;2.718;2024-03-23T14:40:45;7.97;;;2.90;;
51459;SDS011;37534;39.772;2.718;2024-03-23T14:43:11;10.20;;;3.00;;
51459;SDS011;37534;39.772;2.718;2024-03-23T14:45:37;6.03;;;3.15;;
51459;SDS011;37534;39.772;2.718;2024-03-23T14:48:02;8.70;;;3.08;;
51459;SDS011;37534;39.772;2.718;2024-03-23T14:50:28;5.78;;;3.00;;
51459;SDS011;37534;39.772;2.718;2024-03-23T14:52:54;4.60;;;3.05;;
51459;SDS011;37534;39.772;2.718;2024-03-23T14:55:19;12.68;;;2.92;;
51459;SDS011;37534;39.772;2.718;2024-03-23T14:57:45;8.40;;;3.03;;
51459;SDS011;37534;39.772;2.718;2024-03-23T15:00:11;3.60;;;2.42;;
51459;SDS011;37534;39.772;2.718;2024-03-23T15:02:37;12.90;;;3.72;;
51459;SDS011;37534;39.772;2.718;2024-03-23T15:05:06;7.88;;;3.45;;
51459;SDS011;37534;39.772;2.718;2024-03-23T15:07:38;4.22;;;2.63;;
51459;SDS011;37534;39.772;2.718;2024-03-23T15:10:05;5.53;;;3.08;;
51459;SDS011;37534;39.772;2.718;2024-03-23T15:12:31;7.82;;;3.95;;
51459;SDS011;37534;39.772;2.718;2024-03-23T15:14:59;9.18;;;3.67;;
51459;SDS011;37534;39.772;2.718;2024-03-23T15:17:25;4.00;;;3.30;;
51459;SDS011;37534;39.772;2.718;2024-03-23T15:19:51;5.55;;;3.25;;
51459;SDS011;37534;39.772;2.718;2024-03-23T15:22:18;5.90;;;2.88;;
51459;SDS011;37534;39.772;2.718;2024-03-23T15:24:44;7.30;;;3.38;;
51459;SDS011;37534;39.772;2.718;2024-03-23T15:27:09;9.15;;;3.20;;
51459;SDS011;37534;39.772;2.718;2024-03-23T15:29:35;5.70;;;3.28;;
51459;SDS011;37534;39.772;2.718;2024-03-23T15:32:01;10.32;;;4.20;;
51459;SDS011;37534;39.772;2.718;2024-03-23T15:34:28;5.75;;;3.42;;
51459;SDS011;37534;39.772;2.718;2024-03-23T15:36:54;7.53;;;3.70;;
51459;SDS011;37534;39.772;2.718;2024-03-23T15:39:20;6.85;;;3.58;;